createdAt,value
2018-08-03T00:01:32.009Z,102122.07
2018-08-03T00:04:00.695Z,102111.23
2018-08-03T00:06:29.390Z,102115.06
2018-08-03T00:08:58.087Z,102119.53
2018-08-03T00:11:26.752Z,102119.92
2018-08-03T00:13:55.403Z,102117.91
2018-08-03T00:16:24.036Z,102115.76
2018-08-03T00:18:53.047Z,102114.72
2018-08-03T00:21:21.705Z,102117.48
2018-08-03T00:23:50.388Z,102118.61
2018-08-03T00:26:19.028Z,102115.88
2018-08-03T00:28:47.684Z,102119.25
2018-08-03T00:31:16.308Z,102117.69
2018-08-03T00:33:44.986Z,102111.41
2018-08-03T00:36:13.635Z,102109.41
2018-08-03T00:38:42.318Z,102106.64
2018-08-03T00:41:10.993Z,102110.53
2018-08-03T00:43:39.628Z,102112.23
2018-08-03T00:46:08.291Z,102111.27
2018-08-03T00:48:36.936Z,102118.47
2018-08-03T00:51:05.618Z,102116.62
2018-08-03T00:53:34.239Z,102122.20
2018-08-03T00:56:02.891Z,102124.84
2018-08-03T00:58:31.535Z,102122.61
2018-08-03T01:01:00.203Z,102124.43
2018-08-03T01:03:28.849Z,102119.16
2018-08-03T01:05:57.501Z,102113.87
2018-08-03T01:08:27.043Z,102113.92
2018-08-03T01:10:55.727Z,102113.70
2018-08-03T01:13:24.394Z,102113.39
2018-08-03T01:15:53.051Z,102117.94
2018-08-03T01:18:21.692Z,102113.43
2018-08-03T01:20:50.358Z,102112.25
2018-08-03T01:23:18.999Z,102121.77
2018-08-03T01:25:47.745Z,102125.90
2018-08-03T01:28:16.634Z,102124.39
2018-08-03T01:30:45.296Z,102130.63
2018-08-03T01:33:13.915Z,102125.17
2018-08-03T01:35:42.575Z,102123.54
2018-08-03T01:38:11.203Z,102125.63
2018-08-03T01:40:39.865Z,102126.16
2018-08-03T01:43:08.505Z,102124.44
2018-08-03T01:45:37.152Z,102118.53
2018-08-03T01:48:05.795Z,102122.47
2018-08-03T01:50:34.469Z,102125.13
2018-08-03T01:53:03.099Z,102121.63
2018-08-03T01:55:31.810Z,102124.16
2018-08-03T01:58:00.440Z,102126.16
2018-08-03T02:00:29.119Z,102117.15
2018-08-03T02:02:57.770Z,102122.03
2018-08-03T02:05:26.447Z,102122.03
2018-08-03T02:07:55.070Z,102124.47
2018-08-03T02:10:23.735Z,102115.05
2018-08-03T02:12:52.411Z,102123.41
2018-08-03T02:15:21.080Z,102125.58
2018-08-03T02:17:49.747Z,102127.17
2018-08-03T02:20:18.397Z,102116.66
2018-08-03T02:22:47.036Z,102119.32
2018-08-03T02:25:15.699Z,102114.66
2018-08-03T02:27:44.374Z,102120.97
2018-08-03T02:30:13.048Z,102125.49
2018-08-03T02:32:41.691Z,102125.84
2018-08-03T02:35:10.376Z,102126.16
2018-08-03T02:37:39.036Z,102130.47
2018-08-03T02:40:07.735Z,102127.65
2018-08-03T02:42:36.404Z,102129.23
2018-08-03T02:45:05.479Z,102130.52
2018-08-03T02:47:34.139Z,102127.55
2018-08-03T02:50:02.796Z,102133.63
2018-08-03T02:52:31.495Z,102136.83
2018-08-03T02:55:00.143Z,102140.69
2018-08-03T02:57:28.827Z,102140.01
2018-08-03T02:59:57.472Z,102141.45
2018-08-03T03:02:26.159Z,102146.69
2018-08-03T03:04:54.824Z,102140.30
2018-08-03T03:07:23.594Z,102147.41
2018-08-03T03:09:52.224Z,102151.72
2018-08-03T03:12:20.904Z,102151.86
2018-08-03T03:14:49.554Z,102150.09
2018-08-03T03:17:18.214Z,102145.64
2018-08-03T03:19:46.882Z,102146.03
2018-08-03T03:22:15.570Z,102146.41
2018-08-03T03:24:44.205Z,102150.69
2018-08-03T03:27:12.867Z,102147.34
2018-08-03T03:29:41.501Z,102150.62
2018-08-03T03:32:10.264Z,102146.32
2018-08-03T03:34:38.920Z,102145.27
2018-08-03T03:37:07.615Z,102148.41
2018-08-03T03:39:36.252Z,102143.96
2018-08-03T03:42:04.937Z,102137.86
2018-08-03T03:44:33.574Z,102137.26
2018-08-03T03:47:02.274Z,102135.70
2018-08-03T03:49:30.906Z,102138.23
2018-08-03T03:51:59.551Z,102145.83
2018-08-03T03:54:28.186Z,102137.08
2018-08-03T03:56:56.860Z,102131.89
2018-08-03T03:59:25.490Z,102135.36
2018-08-03T04:01:54.157Z,102135.25
2018-08-03T04:04:22.783Z,102135.03
2018-08-03T04:06:51.449Z,102136.34
2018-08-03T04:09:20.086Z,102141.05
2018-08-03T04:11:48.741Z,102137.55
2018-08-03T04:14:17.380Z,102130.59
2018-08-03T04:16:46.043Z,102137.17
2018-08-03T04:19:14.685Z,102138.08
2018-08-03T04:21:43.346Z,102142.13
2018-08-03T04:24:12.018Z,102144.30
2018-08-03T04:26:40.689Z,102147.67
2018-08-03T04:29:09.323Z,102148.84
2018-08-03T04:31:37.978Z,102152.03
2018-08-03T04:34:06.614Z,102147.33
2018-08-03T04:36:35.262Z,102148.53
2018-08-03T04:39:04.324Z,102148.36
2018-08-03T04:41:32.996Z,102146.31
2018-08-03T04:44:01.643Z,102143.48
2018-08-03T04:46:30.342Z,102144.80
2018-08-03T04:48:58.982Z,102149.22
2018-08-03T04:51:27.638Z,102148.94
2018-08-03T04:53:56.312Z,102148.80
2018-08-03T04:56:24.959Z,102144.38
2018-08-03T04:58:53.628Z,102153.41
2018-08-03T05:01:22.271Z,102152.59
2018-08-03T05:03:50.923Z,102153.98
2018-08-03T05:06:19.560Z,102154.50
2018-08-03T05:08:48.211Z,102155.36
2018-08-03T05:11:16.876Z,102148.48
2018-08-03T05:13:45.549Z,102149.84
2018-08-03T05:16:14.204Z,102150.77
2018-08-03T05:18:42.864Z,102150.77
2018-08-03T05:21:11.508Z,102146.09
2018-08-03T05:23:40.163Z,102142.02
2018-08-03T05:26:08.813Z,102140.26
2018-08-03T05:28:37.494Z,102148.41
2018-08-03T05:31:06.159Z,102148.97
2018-08-03T05:33:34.831Z,102149.81
2018-08-03T05:36:03.597Z,102148.33
2018-08-03T05:38:32.228Z,102147.00
2018-08-03T05:41:00.874Z,102147.64
2018-08-03T05:43:29.531Z,102146.75
2018-08-03T05:45:58.156Z,102149.44
2018-08-03T05:48:26.823Z,102144.97
2018-08-03T05:50:55.464Z,102145.80
2018-08-03T05:53:24.151Z,102141.95
2018-08-03T05:55:52.800Z,102146.41
2018-08-03T05:58:21.465Z,102146.11
2018-08-03T06:00:50.137Z,102144.65
2018-08-03T06:03:19.080Z,102150.34
2018-08-03T06:05:47.720Z,102154.48
2018-08-03T06:08:16.434Z,102149.36
2018-08-03T06:10:45.112Z,102150.27
2018-08-03T06:13:13.800Z,102144.42
2018-08-03T06:15:42.455Z,102137.81
2018-08-03T06:18:11.152Z,102147.23
2018-08-03T06:20:39.886Z,102151.78
2018-08-03T06:23:08.572Z,102153.91
2018-08-03T06:25:37.214Z,102149.81
2018-08-03T06:28:06.255Z,102149.88
2018-08-03T06:30:34.902Z,102146.73
2018-08-03T06:33:03.571Z,102140.44
2018-08-03T06:35:32.202Z,102144.85
2018-08-03T06:38:00.878Z,102149.23
2018-08-03T06:40:29.580Z,102148.80
2018-08-03T06:42:58.271Z,102153.98
2018-08-03T06:45:26.925Z,102143.64
2018-08-03T06:47:55.588Z,102144.18
2018-08-03T06:50:24.203Z,102146.93
2018-08-03T06:52:52.860Z,102139.65
2018-08-03T06:55:21.516Z,102150.48
2018-08-03T06:57:50.182Z,102146.09
2018-08-03T07:00:18.847Z,102142.02
2018-08-03T07:02:48.015Z,102143.33
2018-08-03T07:05:17.029Z,102142.56
2018-08-03T07:07:45.660Z,102144.88
2018-08-03T07:10:14.349Z,102141.13
2018-08-03T07:12:43.012Z,102144.67
2018-08-03T07:15:11.711Z,102146.80
2018-08-03T07:17:40.348Z,102143.86
2018-08-03T07:20:09.041Z,102141.41
2018-08-03T07:22:37.671Z,102146.58
2018-08-03T07:25:06.755Z,102139.63
2018-08-03T07:27:35.409Z,102135.20
2018-08-03T07:30:04.166Z,102136.06
2018-08-03T07:32:32.795Z,102138.28
2018-08-03T07:35:01.440Z,102131.37
2018-08-03T07:37:30.077Z,102138.20
2018-08-03T07:39:58.744Z,102133.18
2018-08-03T07:42:27.434Z,102130.41
2018-08-03T07:44:56.123Z,102131.23
2018-08-03T07:47:24.751Z,102134.84
2018-08-03T07:49:53.418Z,102132.86
2018-08-03T07:52:22.057Z,102128.87
2018-08-03T07:54:50.731Z,102127.21
2018-08-03T07:57:19.366Z,102127.75
2018-08-03T07:59:48.008Z,102124.87
2018-08-03T08:02:16.627Z,102125.66
2018-08-03T08:04:45.281Z,102122.73
2018-08-03T08:07:13.972Z,102123.12
2018-08-03T08:09:42.681Z,102122.25
2018-08-03T08:12:11.319Z,102117.45
2018-08-03T08:14:40.009Z,102110.66
2018-08-03T08:17:08.631Z,102109.80
2018-08-03T08:19:37.391Z,102107.91
2018-08-03T08:22:06.039Z,102107.39
2018-08-03T08:24:34.683Z,102102.09
2018-08-03T08:27:03.328Z,102103.63
2018-08-03T08:29:31.992Z,102098.94
2018-08-03T08:32:00.630Z,102098.95
2018-08-03T08:34:29.303Z,102097.41
2018-08-03T08:36:57.985Z,102089.67
2018-08-03T08:39:26.659Z,102094.22
2018-08-03T08:41:55.298Z,102095.80
2018-08-03T08:44:23.973Z,102090.27
2018-08-03T08:46:52.595Z,102088.11
2018-08-03T08:49:21.264Z,102087.08
2018-08-03T08:51:49.916Z,102081.20
2018-08-03T08:54:18.607Z,102087.74
2018-08-03T08:56:47.223Z,102084.63
2018-08-03T08:59:15.895Z,102083.84
2018-08-03T09:01:44.538Z,102075.81
2018-08-03T09:04:13.176Z,102076.46
2018-08-03T09:06:41.822Z,102076.47
2018-08-03T09:09:11.633Z,102075.44
2018-08-03T09:11:40.805Z,102077.50
2018-08-03T09:14:09.477Z,102072.02
2018-08-03T09:16:38.388Z,102066.28
2018-08-03T09:19:07.029Z,102059.36
2018-08-03T09:21:35.704Z,102060.39
2018-08-03T09:24:04.396Z,102052.69
2018-08-03T09:26:33.101Z,102052.77
2018-08-03T09:29:01.743Z,102053.42
2018-08-03T09:31:30.405Z,102053.41
2018-08-03T09:33:59.082Z,102052.34
2018-08-03T09:36:27.743Z,102043.30
2018-08-03T09:38:56.411Z,102035.38
2018-08-03T09:41:25.062Z,102029.81
2018-08-03T09:43:53.682Z,102026.87
2018-08-03T09:46:22.368Z,102033.84
2018-08-03T09:48:50.991Z,102028.52
2018-08-03T09:51:19.658Z,102023.37
2018-08-03T09:53:48.304Z,102029.23
2018-08-03T09:56:16.980Z,102026.70
2018-08-03T09:58:45.635Z,102018.30
2018-08-03T10:01:14.334Z,102012.16
2018-08-03T10:03:43.580Z,102006.70
2018-08-03T10:06:13.227Z,102012.73
2018-08-03T10:08:41.875Z,102004.81
2018-08-03T10:11:10.923Z,101994.80
2018-08-03T10:13:39.619Z,101993.48
2018-08-03T10:16:08.307Z,101991.42
2018-08-03T10:18:36.945Z,101992.03
2018-08-03T10:21:05.608Z,101983.05
2018-08-03T10:23:34.249Z,101987.55
2018-08-03T10:26:02.983Z,101991.20
2018-08-03T10:28:31.615Z,101995.05
2018-08-03T10:31:00.288Z,101994.61
2018-08-03T10:33:28.914Z,101993.92
2018-08-03T10:35:57.559Z,101988.76
2018-08-03T10:38:26.183Z,101987.36
2018-08-03T10:40:54.885Z,101972.99
2018-08-03T10:43:23.577Z,101978.98
2018-08-03T10:45:52.240Z,101976.66
2018-08-03T10:48:20.882Z,101973.46
2018-08-03T10:50:49.530Z,101967.98
2018-08-03T10:53:18.165Z,101961.38
2018-08-03T10:55:46.837Z,101963.80
2018-08-03T10:58:15.496Z,101963.73
2018-08-03T11:00:44.201Z,101956.53
2018-08-03T11:03:12.851Z,101958.34
2018-08-03T11:05:41.500Z,101954.19
2018-08-03T11:08:10.159Z,101951.28
2018-08-03T11:10:38.832Z,101946.20
2018-08-03T11:13:07.560Z,101946.14
2018-08-03T11:15:36.242Z,101953.17
2018-08-03T11:18:04.931Z,101948.55
2018-08-03T11:20:33.587Z,101941.66
2018-08-03T11:23:02.278Z,101938.16
2018-08-03T11:25:30.950Z,101941.66
2018-08-03T11:27:59.611Z,101935.77
2018-08-03T11:30:28.308Z,101931.94
2018-08-03T11:32:56.963Z,101931.71
2018-08-03T11:35:25.640Z,101929.16
2018-08-03T11:37:54.335Z,101936.13
2018-08-03T11:40:22.983Z,101926.70
2018-08-03T11:42:51.668Z,101928.81
2018-08-03T11:45:20.336Z,101920.72
2018-08-03T11:47:49.820Z,101915.89
2018-08-03T11:50:18.477Z,101914.72
2018-08-03T11:52:47.135Z,101916.78
2018-08-03T11:55:15.790Z,101907.33
2018-08-03T11:57:44.467Z,101905.16
2018-08-03T12:00:13.442Z,101901.52
2018-08-03T12:02:42.136Z,101904.98
2018-08-03T12:05:10.817Z,101891.69
2018-08-03T12:07:39.496Z,101893.71
2018-08-03T12:10:08.148Z,101887.98
2018-08-03T12:12:36.904Z,101886.97
2018-08-03T12:15:05.594Z,101882.58
2018-08-03T12:17:34.275Z,101886.30
2018-08-03T12:20:02.935Z,101899.19
2018-08-03T12:22:31.605Z,101886.05
2018-08-03T12:25:00.279Z,101880.73
2018-08-03T12:27:28.958Z,101882.91
2018-08-03T12:29:57.619Z,101888.94
2018-08-03T12:32:26.387Z,101881.30
2018-08-03T12:34:55.055Z,101878.43
2018-08-03T12:37:23.808Z,101881.60
2018-08-03T12:39:52.481Z,101880.58
2018-08-03T12:42:21.173Z,101874.30
2018-08-03T12:44:49.843Z,101873.23
2018-08-03T12:47:18.494Z,101869.70
2018-08-03T12:49:47.141Z,101864.67
2018-08-03T12:52:15.831Z,101865.42
2018-08-03T12:54:44.466Z,101862.77
2018-08-03T12:57:13.155Z,101862.12
2018-08-03T12:59:41.897Z,101859.88
2018-08-03T13:02:10.533Z,101862.19
2018-08-03T13:04:39.239Z,101852.94
2018-08-03T13:07:08.495Z,101844.98
2018-08-03T13:09:37.141Z,101848.17
2018-08-03T13:12:05.828Z,101845.05
2018-08-03T13:14:34.581Z,101845.89
2018-08-03T13:17:03.250Z,101842.89
2018-08-03T13:19:31.908Z,101842.67
2018-08-03T13:22:00.577Z,101829.25
2018-08-03T13:24:29.218Z,101829.39
2018-08-03T13:26:57.867Z,101828.84
2018-08-03T13:29:26.551Z,101814.38
2018-08-03T13:31:55.239Z,101824.52
2018-08-03T13:34:23.931Z,101815.55
2018-08-03T13:36:52.592Z,101815.06
2018-08-03T13:39:21.252Z,101807.32
2018-08-03T13:41:49.884Z,101812.13
2018-08-03T13:44:18.585Z,101800.47
2018-08-03T13:46:47.243Z,101804.28
2018-08-03T13:49:15.932Z,101800.99
2018-08-03T13:51:44.579Z,101794.58
2018-08-03T13:54:13.234Z,101790.67
2018-08-03T13:56:41.867Z,101794.12
2018-08-03T13:59:10.517Z,101791.33
2018-08-03T14:02:44.784Z,101791.56
2018-08-03T14:05:13.673Z,101782.67
2018-08-03T14:07:42.367Z,101774.47
2018-08-03T14:10:11.218Z,101779.92
2018-08-03T14:12:39.992Z,101772.05
2018-08-03T14:15:08.795Z,101775.22
2018-08-03T14:17:37.468Z,101776.05
2018-08-03T14:20:07.477Z,101765.16
2018-08-03T14:22:36.179Z,101772.22
2018-08-03T14:25:04.903Z,101770.18
2018-08-03T14:27:33.538Z,101776.97
2018-08-03T14:30:02.249Z,101771.60
2018-08-03T14:32:30.917Z,101764.70
2018-08-03T14:34:59.608Z,101760.19
2018-08-03T14:37:28.249Z,101757.32
2018-08-03T14:39:56.923Z,101748.93
2018-08-03T14:42:25.610Z,101748.34
2018-08-03T14:44:54.283Z,101746.71
2018-08-03T14:47:22.963Z,101742.25
2018-08-03T14:49:51.671Z,101747.45
2018-08-03T14:52:20.340Z,101743.48
2018-08-03T14:54:48.998Z,101737.54
2018-08-03T14:57:17.663Z,101735.52
2018-08-03T14:59:46.365Z,101734.30
2018-08-03T15:02:15.020Z,101733.89
2018-08-03T15:04:43.705Z,101726.50
2018-08-03T15:07:12.362Z,101727.30
2018-08-03T15:09:41.030Z,101731.02
2018-08-03T15:12:09.706Z,101725.45
2018-08-03T15:14:38.374Z,101724.77
2018-08-03T15:17:07.392Z,101719.27
2018-08-03T15:19:36.063Z,101721.48
2018-08-03T15:22:04.744Z,101717.73
2018-08-03T15:24:33.406Z,101716.53
2018-08-03T15:27:02.056Z,101721.95
2018-08-03T15:29:30.739Z,101715.31
2018-08-03T15:31:59.418Z,101711.47
2018-08-03T15:34:28.074Z,101706.86
2018-08-03T15:36:56.779Z,101706.47
2018-08-03T15:39:25.451Z,101708.88
2018-08-03T15:41:54.092Z,101704.56
2018-08-03T15:44:22.767Z,101696.73
2018-08-03T15:46:51.413Z,101701.84
2018-08-03T15:49:20.114Z,101695.39
2018-08-03T15:51:48.782Z,101696.59
2018-08-03T15:54:17.459Z,101694.89
2018-08-03T15:56:46.111Z,101687.66
2018-08-03T15:59:14.786Z,101683.48
2018-08-03T16:01:43.466Z,101684.28
2018-08-03T16:04:12.128Z,101676.30
2018-08-03T16:06:40.831Z,101676.14
2018-08-03T16:09:10.616Z,101673.96
2018-08-03T16:11:39.809Z,101676.93
2018-08-03T16:14:08.550Z,101671.35
2018-08-03T16:16:37.230Z,101665.47
2018-08-03T16:19:05.956Z,101665.55
2018-08-03T16:21:34.934Z,101660.63
2018-08-03T16:24:04.199Z,101661.45
2018-08-03T16:26:32.900Z,101650.13
2018-08-03T16:29:01.601Z,101653.90
2018-08-03T16:31:30.446Z,101648.32
2018-08-03T16:33:59.095Z,101650.36
2018-08-03T16:36:27.764Z,101645.09
2018-08-03T16:38:56.440Z,101651.58
2018-08-03T16:41:25.157Z,101647.41
2018-08-03T16:43:53.817Z,101637.31
2018-08-03T16:46:22.513Z,101644.73
2018-08-03T16:48:51.211Z,101646.89
2018-08-03T16:51:19.933Z,101634.27
2018-08-03T16:53:48.606Z,101641.16
2018-08-03T16:56:17.293Z,101643.32
2018-08-03T16:58:45.947Z,101643.41
2018-08-03T17:01:14.654Z,101642.02
2018-08-03T17:03:43.289Z,101631.61
2018-08-03T17:06:18.627Z,101632.94
2018-08-03T17:08:47.279Z,101630.70
2018-08-03T17:11:15.957Z,101630.89
2018-08-03T17:13:44.604Z,101627.58
2018-08-03T17:16:13.265Z,101625.69
2018-08-03T17:18:41.931Z,101626.67
2018-08-03T17:21:10.847Z,101619.75
2018-08-03T17:23:39.499Z,101619.83
2018-08-03T17:26:08.206Z,101619.08
2018-08-03T17:28:36.826Z,101619.18
2018-08-03T17:31:05.502Z,101612.28
2018-08-03T17:33:34.126Z,101622.44
2018-08-03T17:36:02.784Z,101619.35
2018-08-03T17:38:31.437Z,101617.39
2018-08-03T17:41:00.100Z,101617.47
2018-08-03T17:43:28.764Z,101620.66
2018-08-03T17:45:57.435Z,101617.59
2018-08-03T17:48:26.063Z,101612.64
2018-08-03T17:50:54.811Z,101616.37
2018-08-03T17:53:23.444Z,101617.64
2018-08-03T17:55:52.103Z,101613.41
2018-08-03T17:58:20.752Z,101614.30
2018-08-03T18:00:49.469Z,101611.99
2018-08-03T18:03:18.094Z,101612.94
2018-08-03T18:05:46.747Z,101617.03
2018-08-03T18:08:15.368Z,101609.94
2018-08-03T18:10:44.028Z,101619.69
2018-08-03T18:13:12.686Z,101613.16
2018-08-03T18:15:41.443Z,101617.27
2018-08-03T18:18:10.088Z,101621.44
2018-08-03T18:20:38.776Z,101619.36
2018-08-03T18:23:07.451Z,101628.92
2018-08-03T18:25:36.128Z,101627.66
2018-08-03T18:28:04.824Z,101625.25
2018-08-03T18:30:33.532Z,101621.42
2018-08-03T18:33:02.179Z,101631.69
2018-08-03T18:35:30.835Z,101638.65
2018-08-03T18:37:59.485Z,101641.05
2018-08-03T18:40:28.190Z,101637.40
2018-08-03T18:42:56.828Z,101643.67
2018-08-03T18:45:25.519Z,101644.41
2018-08-03T18:47:54.173Z,101637.58
2018-08-03T18:50:22.815Z,101650.76
2018-08-03T18:52:51.722Z,101647.97
2018-08-03T18:55:20.376Z,101653.76
2018-08-03T18:57:49.034Z,101656.94
2018-08-03T19:00:17.687Z,101657.23
2018-08-03T19:02:46.350Z,101657.49
2018-08-03T19:05:15.025Z,101661.67
2018-08-03T19:07:43.707Z,101669.70
2018-08-03T19:10:12.409Z,101669.55
2018-08-03T19:12:41.107Z,101676.42
2018-08-03T19:15:10.244Z,101677.06
2018-08-03T19:17:39.011Z,101678.24
2018-08-03T19:20:08.463Z,101685.02
2018-08-03T19:22:37.398Z,101689.02
2018-08-03T19:25:06.410Z,101690.78
2018-08-03T19:27:35.090Z,101691.14
2018-08-03T19:30:03.774Z,101695.69
2018-08-03T19:32:32.435Z,101695.16
2018-08-03T19:35:01.084Z,101701.63
2018-08-03T19:37:29.807Z,101694.09
2018-08-03T19:39:58.508Z,101693.28
2018-08-03T19:42:27.163Z,101691.05
2018-08-03T19:44:55.826Z,101696.38
2018-08-03T19:47:24.480Z,101703.09
2018-08-03T19:49:53.128Z,101698.09
2018-08-03T19:52:21.780Z,101699.22
2018-08-03T19:54:50.500Z,101697.27
2018-08-03T19:57:19.174Z,101698.95
2018-08-03T19:59:47.829Z,101695.86
2018-08-03T20:02:16.565Z,101696.72
2018-08-03T20:04:45.219Z,101691.41
2018-08-03T20:07:13.889Z,101690.02
2018-08-03T20:09:42.535Z,101691.70
2018-08-03T20:12:11.230Z,101698.10
2018-08-03T20:14:39.884Z,101700.84
2018-08-03T20:17:08.595Z,101702.52
2018-08-03T20:19:37.243Z,101703.90
2018-08-03T20:22:11.619Z,101704.45
2018-08-03T20:24:40.340Z,101704.99
2018-08-03T20:27:09.020Z,101701.63
2018-08-03T20:29:37.673Z,101704.41
2018-08-03T20:32:06.399Z,101702.45
2018-08-03T20:34:35.041Z,101703.53
2018-08-03T20:37:03.724Z,101710.45
2018-08-03T20:39:32.375Z,101709.52
2018-08-03T20:42:01.044Z,101716.98
2018-08-03T20:44:30.128Z,101717.45
2018-08-03T20:46:58.784Z,101717.38
2018-08-03T20:49:27.416Z,101715.41
2018-08-03T20:51:56.141Z,101714.30
2018-08-03T20:54:24.822Z,101719.51
2018-08-03T20:56:53.502Z,101719.34
2018-08-03T20:59:22.135Z,101719.71
2018-08-03T21:01:50.852Z,101718.15
2018-08-03T21:04:19.537Z,101727.47
2018-08-03T21:06:48.263Z,101726.00
2018-08-03T21:09:16.919Z,101725.96
2018-08-03T21:11:45.581Z,101724.02
2018-08-03T21:14:14.254Z,101721.82
2018-08-03T21:16:42.914Z,101725.13
2018-08-03T21:19:18.069Z,101724.97
2018-08-03T21:21:46.729Z,101721.46
2018-08-03T21:24:15.391Z,101722.77
2018-08-03T21:26:44.032Z,101714.66
2018-08-03T21:29:12.700Z,101710.76
2018-08-03T21:31:41.397Z,101710.06
2018-08-03T21:34:10.060Z,101706.73
2018-08-03T21:36:38.769Z,101700.68
2018-08-03T21:39:09.607Z,101706.56
2018-08-03T21:41:38.262Z,101695.33
2018-08-03T21:44:06.954Z,101698.48
2018-08-03T21:46:35.627Z,101702.48
2018-08-03T21:49:04.439Z,101703.41
2018-08-03T21:51:33.704Z,101700.34
2018-08-03T21:54:02.388Z,101694.70
2018-08-03T21:56:31.059Z,101693.83
2018-08-03T21:58:59.730Z,101698.16
2018-08-03T22:01:28.392Z,101693.09
2018-08-03T22:03:57.051Z,101696.43
2018-08-03T22:06:25.708Z,101698.20
2018-08-03T22:08:54.381Z,101699.48
2018-08-03T22:11:23.032Z,101690.31
2018-08-03T22:13:51.691Z,101695.83
2018-08-03T22:16:20.394Z,101681.91
2018-08-03T22:18:49.111Z,101689.86
2018-08-03T22:21:17.727Z,101685.64
2018-08-03T22:23:46.395Z,101685.91
2018-08-03T22:26:15.046Z,101684.05
2018-08-03T22:28:43.714Z,101680.58
2018-08-03T22:31:12.383Z,101667.82
2018-08-03T22:33:41.039Z,101668.52
2018-08-03T22:36:09.683Z,101666.44
2018-08-03T22:38:38.381Z,101658.41
2018-08-03T22:41:07.054Z,101655.28
2018-08-03T22:43:35.712Z,101656.81
2018-08-03T22:46:04.396Z,101651.96
2018-08-03T22:48:33.063Z,101645.34
2018-08-03T22:51:01.717Z,101654.94
2018-08-03T22:53:30.379Z,101655.39
2018-08-03T22:55:59.025Z,101655.19
2018-08-03T22:58:27.694Z,101659.38
2018-08-03T23:00:56.397Z,101655.22
2018-08-03T23:03:25.053Z,101657.48
2018-08-03T23:05:53.787Z,101654.70
2018-08-03T23:08:22.447Z,101656.23
2018-08-03T23:10:51.114Z,101652.81
2018-08-03T23:13:19.822Z,101653.17
2018-08-03T23:15:48.471Z,101651.20
2018-08-03T23:18:17.123Z,101649.81
2018-08-03T23:20:45.806Z,101654.81
2018-08-03T23:23:14.465Z,101646.23
2018-08-03T23:25:43.138Z,101653.84
2018-08-03T23:28:11.771Z,101646.66
2018-08-03T23:30:40.452Z,101647.30
2018-08-03T23:33:09.091Z,101651.52
2018-08-03T23:35:37.818Z,101644.78
2018-08-03T23:38:06.537Z,101648.78
2018-08-03T23:40:35.224Z,101647.63
2018-08-03T23:43:03.881Z,101651.23
2018-08-03T23:45:32.577Z,101650.72
2018-08-03T23:48:01.287Z,101639.02
2018-08-03T23:50:29.988Z,101640.11
2018-08-03T23:52:58.700Z,101634.16
2018-08-03T23:55:27.390Z,101635.67
2018-08-03T23:57:56.065Z,101635.11
